sensor_id;sensor_type;location;lat;lon;timestamp;P1;durP1;ratioP1;P2;durP2;ratioP2
22080;SDS011;11207;59.512;18.050;2023-06-04T00:01:34;3.10;;;2.80;;
22080;SDS011;11207;59.512;18.050;2023-06-04T00:03:59;3.20;;;2.90;;
22080;SDS011;11207;59.512;18.050;2023-06-04T00:06:25;3.30;;;2.50;;
22080;SDS011;11207;59.512;18.050;2023-06-04T00:08:50;3.23;;;2.93;;
22080;SDS011;11207;59.512;18.050;2023-06-04T00:11:16;3.33;;;2.67;;
22080;SDS011;11207;59.512;18.050;2023-06-04T00:13:41;3.60;;;3.10;;
22080;SDS011;11207;59.512;18.050;2023-06-04T00:16:07;3.50;;;2.90;;
22080;SDS011;11207;59.512;18.050;2023-06-04T00:18:33;3.30;;;3.00;;
22080;SDS011;11207;59.512;18.050;2023-06-04T00:20:58;3.37;;;3.00;;
22080;SDS011;11207;59.512;18.050;2023-06-04T00:23:24;3.80;;;3.30;;
22080;SDS011;11207;59.512;18.050;2023-06-04T00:25:50;4.73;;;3.30;;
22080;SDS011;11207;59.512;18.050;2023-06-04T00:28:15;3.30;;;3.00;;
22080;SDS011;11207;59.512;18.050;2023-06-04T00:30:41;3.80;;;3.10;;
22080;SDS011;11207;59.512;18.050;2023-06-04T00:33:06;3.50;;;3.10;;
22080;SDS011;11207;59.512;18.050;2023-06-04T00:35:32;3.50;;;3.20;;
22080;SDS011;11207;59.512;18.050;2023-06-04T00:37:58;3.63;;;3.33;;
22080;SDS011;11207;59.512;18.050;2023-06-04T00:40:23;3.10;;;2.87;;
22080;SDS011;11207;59.512;18.050;2023-06-04T00:42:49;4.30;;;3.40;;
22080;SDS011;11207;59.512;18.050;2023-06-04T00:45:15;4.23;;;3.20;;
22080;SDS011;11207;59.512;18.050;2023-06-04T00:47:43;3.20;;;3.00;;
22080;SDS011;11207;59.512;18.050;2023-06-04T00:50:10;4.03;;;3.50;;
22080;SDS011;11207;59.512;18.050;2023-06-04T00:52:36;3.67;;;2.90;;
22080;SDS011;11207;59.512;18.050;2023-06-04T00:55:03;3.67;;;3.10;;
22080;SDS011;11207;59.512;18.050;2023-06-04T00:57:29;5.87;;;3.33;;
22080;SDS011;11207;59.512;18.050;2023-06-04T00:59:55;3.47;;;2.80;;
22080;SDS011;11207;59.512;18.050;2023-06-04T01:02:21;2.80;;;2.60;;
22080;SDS011;11207;59.512;18.050;2023-06-04T01:04:53;3.90;;;2.60;;
22080;SDS011;11207;59.512;18.050;2023-06-04T01:07:43;2.67;;;2.33;;
22080;SDS011;11207;59.512;18.050;2023-06-04T01:10:14;3.53;;;2.83;;
22080;SDS011;11207;59.512;18.050;2023-06-04T01:12:41;2.80;;;2.60;;
22080;SDS011;11207;59.512;18.050;2023-06-04T01:15:07;3.10;;;2.80;;
22080;SDS011;11207;59.512;18.050;2023-06-04T01:17:36;2.90;;;2.70;;
22080;SDS011;11207;59.512;18.050;2023-06-04T01:23:10;3.63;;;2.80;;
22080;SDS011;11207;59.512;18.050;2023-06-04T01:26:02;3.43;;;2.87;;
22080;SDS011;11207;59.512;18.050;2023-06-04T01:28:30;3.03;;;2.73;;
22080;SDS011;11207;59.512;18.050;2023-06-04T01:30:57;2.67;;;2.47;;
22080;SDS011;11207;59.512;18.050;2023-06-04T01:33:24;2.70;;;2.50;;
22080;SDS011;11207;59.512;18.050;2023-06-04T01:35:50;3.40;;;2.80;;
22080;SDS011;11207;59.512;18.050;2023-06-04T01:38:16;2.80;;;2.60;;
22080;SDS011;11207;59.512;18.050;2023-06-04T01:40:43;2.80;;;2.60;;
22080;SDS011;11207;59.512;18.050;2023-06-04T01:43:08;6.87;;;2.70;;
22080;SDS011;11207;59.512;18.050;2023-06-04T01:45:35;4.87;;;2.80;;
22080;SDS011;11207;59.512;18.050;2023-06-04T01:48:01;2.87;;;2.60;;
22080;SDS011;11207;59.512;18.050;2023-06-04T01:50:27;3.60;;;2.70;;
22080;SDS011;11207;59.512;18.050;2023-06-04T01:52:53;3.37;;;2.67;;
22080;SDS011;11207;59.512;18.050;2023-06-04T01:55:19;4.23;;;2.90;;
22080;SDS011;11207;59.512;18.050;2023-06-04T01:57:45;2.57;;;2.37;;
22080;SDS011;11207;59.512;18.050;2023-06-04T02:00:15;2.40;;;2.30;;
22080;SDS011;11207;59.512;18.050;2023-06-04T02:02:43;3.30;;;2.20;;
22080;SDS011;11207;59.512;18.050;2023-06-04T02:05:10;2.10;;;2.00;;
22080;SDS011;11207;59.512;18.050;2023-06-04T02:07:37;2.30;;;2.10;;
22080;SDS011;11207;59.512;18.050;2023-06-04T02:10:04;2.30;;;2.10;;
22080;SDS011;11207;59.512;18.050;2023-06-04T02:12:32;2.70;;;2.40;;
22080;SDS011;11207;59.512;18.050;2023-06-04T02:14:57;2.10;;;2.00;;
22080;SDS011;11207;59.512;18.050;2023-06-04T02:17:23;2.50;;;2.30;;
22080;SDS011;11207;59.512;18.050;2023-06-04T02:19:48;2.37;;;2.13;;
22080;SDS011;11207;59.512;18.050;2023-06-04T02:22:18;2.10;;;2.00;;
22080;SDS011;11207;59.512;18.050;2023-06-04T02:24:44;1.97;;;1.87;;
22080;SDS011;11207;59.512;18.050;2023-06-04T02:27:11;4.57;;;2.10;;
22080;SDS011;11207;59.512;18.050;2023-06-04T02:29:40;2.20;;;2.00;;
22080;SDS011;11207;59.512;18.050;2023-06-04T02:32:06;2.00;;;1.90;;
22080;SDS011;11207;59.512;18.050;2023-06-04T02:34:32;1.70;;;1.60;;
22080;SDS011;11207;59.512;18.050;2023-06-04T02:37:01;2.90;;;2.17;;
22080;SDS011;11207;59.512;18.050;2023-06-04T02:39:28;2.13;;;1.80;;
22080;SDS011;11207;59.512;18.050;2023-06-04T02:41:53;2.67;;;1.97;;
22080;SDS011;11207;59.512;18.050;2023-06-04T02:44:19;1.77;;;1.67;;
22080;SDS011;11207;59.512;18.050;2023-06-04T02:46:45;3.20;;;1.70;;
22080;SDS011;11207;59.512;18.050;2023-06-04T02:49:13;2.00;;;1.90;;
22080;SDS011;11207;59.512;18.050;2023-06-04T02:51:42;1.87;;;1.77;;
22080;SDS011;11207;59.512;18.050;2023-06-04T02:54:08;2.43;;;1.80;;
22080;SDS011;11207;59.512;18.050;2023-06-04T02:56:35;2.33;;;2.23;;
22080;SDS011;11207;59.512;18.050;2023-06-04T02:59:02;3.03;;;2.07;;
22080;SDS011;11207;59.512;18.050;2023-06-04T03:01:28;1.87;;;1.70;;
22080;SDS011;11207;59.512;18.050;2023-06-04T03:03:54;3.47;;;1.90;;
22080;SDS011;11207;59.512;18.050;2023-06-04T03:06:22;1.93;;;1.80;;
22080;SDS011;11207;59.512;18.050;2023-06-04T03:08:48;1.90;;;1.80;;
22080;SDS011;11207;59.512;18.050;2023-06-04T03:11:15;2.47;;;2.20;;
22080;SDS011;11207;59.512;18.050;2023-06-04T03:13:45;2.07;;;1.97;;
22080;SDS011;11207;59.512;18.050;2023-06-04T03:16:11;2.20;;;2.00;;
22080;SDS011;11207;59.512;18.050;2023-06-04T03:18:38;2.17;;;1.93;;
22080;SDS011;11207;59.512;18.050;2023-06-04T03:21:07;2.20;;;2.10;;
22080;SDS011;11207;59.512;18.050;2023-06-04T03:23:33;2.27;;;2.00;;
22080;SDS011;11207;59.512;18.050;2023-06-04T03:26:00;2.07;;;1.90;;
22080;SDS011;11207;59.512;18.050;2023-06-04T03:28:26;1.97;;;1.80;;
22080;SDS011;11207;59.512;18.050;2023-06-04T03:30:52;1.80;;;1.70;;
22080;SDS011;11207;59.512;18.050;2023-06-04T03:33:17;1.93;;;1.83;;
22080;SDS011;11207;59.512;18.050;2023-06-04T03:35:43;3.27;;;1.93;;
22080;SDS011;11207;59.512;18.050;2023-06-04T03:38:09;2.07;;;1.87;;
22080;SDS011;11207;59.512;18.050;2023-06-04T03:40:34;1.90;;;1.80;;
22080;SDS011;11207;59.512;18.050;2023-06-04T03:43:00;1.90;;;1.80;;
22080;SDS011;11207;59.512;18.050;2023-06-04T03:45:26;1.90;;;1.80;;
22080;SDS011;11207;59.512;18.050;2023-06-04T03:47:51;2.10;;;1.90;;
22080;SDS011;11207;59.512;18.050;2023-06-04T03:50:20;1.97;;;1.87;;
22080;SDS011;11207;59.512;18.050;2023-06-04T03:52:46;1.80;;;1.70;;
22080;SDS011;11207;59.512;18.050;2023-06-04T03:55:13;2.00;;;1.83;;
22080;SDS011;11207;59.512;18.050;2023-06-04T03:57:38;2.00;;;1.90;;
22080;SDS011;11207;59.512;18.050;2023-06-04T04:00:08;2.10;;;2.00;;
22080;SDS011;11207;59.512;18.050;2023-06-04T04:02:37;2.23;;;1.80;;
22080;SDS011;11207;59.512;18.050;2023-06-04T04:05:03;1.90;;;1.80;;
22080;SDS011;11207;59.512;18.050;2023-06-04T04:07:29;3.57;;;1.93;;
22080;SDS011;11207;59.512;18.050;2023-06-04T04:09:55;2.30;;;2.10;;
22080;SDS011;11207;59.512;18.050;2023-06-04T04:12:20;1.90;;;1.80;;
22080;SDS011;11207;59.512;18.050;2023-06-04T04:14:46;3.13;;;2.07;;
22080;SDS011;11207;59.512;18.050;2023-06-04T04:17:12;2.17;;;1.93;;
22080;SDS011;11207;59.512;18.050;2023-06-04T04:19:38;2.27;;;2.17;;
22080;SDS011;11207;59.512;18.050;2023-06-04T04:22:04;2.10;;;2.00;;
22080;SDS011;11207;59.512;18.050;2023-06-04T04:24:30;2.10;;;2.00;;
22080;SDS011;11207;59.512;18.050;2023-06-04T04:26:56;3.07;;;2.17;;
22080;SDS011;11207;59.512;18.050;2023-06-04T04:29:23;1.93;;;1.67;;
22080;SDS011;11207;59.512;18.050;2023-06-04T04:31:52;2.97;;;1.83;;
22080;SDS011;11207;59.512;18.050;2023-06-04T04:34:26;1.83;;;1.70;;
22080;SDS011;11207;59.512;18.050;2023-06-04T04:36:52;1.97;;;1.87;;
22080;SDS011;11207;59.512;18.050;2023-06-04T04:39:22;1.87;;;1.77;;
22080;SDS011;11207;59.512;18.050;2023-06-04T04:41:49;4.93;;;1.70;;
22080;SDS011;11207;59.512;18.050;2023-06-04T04:44:15;1.87;;;1.77;;
22080;SDS011;11207;59.512;18.050;2023-06-04T04:46:41;1.70;;;1.60;;
22080;SDS011;11207;59.512;18.050;2023-06-04T04:49:09;1.80;;;1.70;;
22080;SDS011;11207;59.512;18.050;2023-06-04T04:51:35;3.23;;;1.60;;
22080;SDS011;11207;59.512;18.050;2023-06-04T04:54:01;1.70;;;1.60;;
22080;SDS011;11207;59.512;18.050;2023-06-04T04:56:27;1.67;;;1.57;;
22080;SDS011;11207;59.512;18.050;2023-06-04T04:58:54;2.33;;;1.50;;
22080;SDS011;11207;59.512;18.050;2023-06-04T05:01:20;1.77;;;1.67;;
22080;SDS011;11207;59.512;18.050;2023-06-04T05:03:46;1.43;;;1.43;;
22080;SDS011;11207;59.512;18.050;2023-06-04T05:06:14;1.40;;;1.40;;
22080;SDS011;11207;59.512;18.050;2023-06-04T05:08:39;1.47;;;1.40;;
22080;SDS011;11207;59.512;18.050;2023-06-04T05:11:07;1.40;;;1.40;;
22080;SDS011;11207;59.512;18.050;2023-06-04T05:13:32;1.70;;;1.60;;
22080;SDS011;11207;59.512;18.050;2023-06-04T05:15:58;1.43;;;1.43;;
22080;SDS011;11207;59.512;18.050;2023-06-04T05:18:24;1.23;;;1.23;;
22080;SDS011;11207;59.512;18.050;2023-06-04T05:20:54;1.50;;;1.40;;
22080;SDS011;11207;59.512;18.050;2023-06-04T05:23:20;1.40;;;1.40;;
22080;SDS011;11207;59.512;18.050;2023-06-04T05:25:45;1.50;;;1.40;;
22080;SDS011;11207;59.512;18.050;2023-06-04T05:28:14;1.37;;;1.30;;
22080;SDS011;11207;59.512;18.050;2023-06-04T05:30:40;1.40;;;1.40;;
22080;SDS011;11207;59.512;18.050;2023-06-04T05:33:06;1.40;;;1.30;;
22080;SDS011;11207;59.512;18.050;2023-06-04T05:35:40;1.30;;;1.30;;
22080;SDS011;11207;59.512;18.050;2023-06-04T05:38:06;1.40;;;1.30;;
22080;SDS011;11207;59.512;18.050;2023-06-04T05:40:33;1.57;;;1.40;;
22080;SDS011;11207;59.512;18.050;2023-06-04T05:42:59;1.20;;;1.20;;
22080;SDS011;11207;59.512;18.050;2023-06-04T05:45:24;1.17;;;1.17;;
22080;SDS011;11207;59.512;18.050;2023-06-04T05:47:50;2.07;;;1.30;;
22080;SDS011;11207;59.512;18.050;2023-06-04T05:50:18;1.20;;;1.20;;
22080;SDS011;11207;59.512;18.050;2023-06-04T05:52:44;1.40;;;1.30;;
22080;SDS011;11207;59.512;18.050;2023-06-04T05:55:10;1.30;;;1.30;;
22080;SDS011;11207;59.512;18.050;2023-06-04T05:57:35;1.20;;;1.20;;
22080;SDS011;11207;59.512;18.050;2023-06-04T06:00:01;1.20;;;1.20;;
22080;SDS011;11207;59.512;18.050;2023-06-04T06:02:27;1.30;;;1.20;;
22080;SDS011;11207;59.512;18.050;2023-06-04T06:04:53;1.13;;;1.13;;
22080;SDS011;11207;59.512;18.050;2023-06-04T06:07:19;1.00;;;1.00;;
22080;SDS011;11207;59.512;18.050;2023-06-04T06:09:44;1.40;;;1.30;;
22080;SDS011;11207;59.512;18.050;2023-06-04T06:12:10;1.10;;;1.10;;
22080;SDS011;11207;59.512;18.050;2023-06-04T06:14:36;1.30;;;1.30;;
22080;SDS011;11207;59.512;18.050;2023-06-04T06:17:01;1.30;;;1.23;;
22080;SDS011;11207;59.512;18.050;2023-06-04T06:19:28;1.40;;;1.30;;
22080;SDS011;11207;59.512;18.050;2023-06-04T06:21:53;1.17;;;1.17;;
22080;SDS011;11207;59.512;18.050;2023-06-04T06:24:19;1.20;;;1.20;;
22080;SDS011;11207;59.512;18.050;2023-06-04T06:26:44;1.43;;;1.40;;
22080;SDS011;11207;59.512;18.050;2023-06-04T06:29:10;1.27;;;1.27;;
22080;SDS011;11207;59.512;18.050;2023-06-04T06:31:36;1.30;;;1.30;;
22080;SDS011;11207;59.512;18.050;2023-06-04T06:34:02;1.30;;;1.20;;
22080;SDS011;11207;59.512;18.050;2023-06-04T06:36:27;1.80;;;1.40;;
22080;SDS011;11207;59.512;18.050;2023-06-04T06:38:53;1.00;;;1.00;;
22080;SDS011;11207;59.512;18.050;2023-06-04T06:41:19;1.30;;;1.30;;
22080;SDS011;11207;59.512;18.050;2023-06-04T06:43:47;4.20;;;1.30;;
22080;SDS011;11207;59.512;18.050;2023-06-04T06:46:34;1.17;;;1.10;;
22080;SDS011;11207;59.512;18.050;2023-06-04T06:49:00;1.33;;;1.30;;
22080;SDS011;11207;59.512;18.050;2023-06-04T06:51:26;1.83;;;1.20;;
22080;SDS011;11207;59.512;18.050;2023-06-04T06:53:54;1.10;;;1.10;;
22080;SDS011;11207;59.512;18.050;2023-06-04T06:56:50;1.10;;;1.10;;
22080;SDS011;11207;59.512;18.050;2023-06-04T06:59:17;1.50;;;1.40;;
22080;SDS011;11207;59.512;18.050;2023-06-04T07:01:43;1.20;;;1.20;;
22080;SDS011;11207;59.512;18.050;2023-06-04T07:04:09;1.33;;;1.23;;
22080;SDS011;11207;59.512;18.050;2023-06-04T07:06:34;1.20;;;1.10;;
22080;SDS011;11207;59.512;18.050;2023-06-04T07:09:01;1.00;;;1.00;;
22080;SDS011;11207;59.512;18.050;2023-06-04T07:11:28;1.17;;;1.03;;
22080;SDS011;11207;59.512;18.050;2023-06-04T07:13:53;1.20;;;1.10;;
22080;SDS011;11207;59.512;18.050;2023-06-04T07:16:19;1.20;;;1.10;;
22080;SDS011;11207;59.512;18.050;2023-06-04T07:18:47;1.20;;;1.20;;
22080;SDS011;11207;59.512;18.050;2023-06-04T07:21:14;1.00;;;1.00;;
22080;SDS011;11207;59.512;18.050;2023-06-04T07:23:40;3.03;;;1.13;;
22080;SDS011;11207;59.512;18.050;2023-06-04T07:26:06;1.20;;;1.10;;
22080;SDS011;11207;59.512;18.050;2023-06-04T07:28:32;0.90;;;0.90;;
22080;SDS011;11207;59.512;18.050;2023-06-04T07:30:57;2.28;;;0.95;;
22080;SDS011;11207;59.512;18.050;2023-06-04T07:33:23;3.15;;;1.10;;
22080;SDS011;11207;59.512;18.050;2023-06-04T07:35:50;1.10;;;1.00;;
22080;SDS011;11207;59.512;18.050;2023-06-04T07:38:15;1.10;;;1.00;;
22080;SDS011;11207;59.512;18.050;2023-06-04T07:40:42;0.90;;;0.90;;
22080;SDS011;11207;59.512;18.050;2023-06-04T07:43:10;1.00;;;1.00;;
22080;SDS011;11207;59.512;18.050;2023-06-04T07:45:35;1.20;;;1.10;;
22080;SDS011;11207;59.512;18.050;2023-06-04T07:48:01;0.90;;;0.90;;
22080;SDS011;11207;59.512;18.050;2023-06-04T07:50:29;1.25;;;1.15;;
22080;SDS011;11207;59.512;18.050;2023-06-04T07:52:55;0.80;;;0.80;;
22080;SDS011;11207;59.512;18.050;2023-06-04T07:55:22;0.93;;;0.93;;
22080;SDS011;11207;59.512;18.050;2023-06-04T07:57:47;1.65;;;1.10;;
22080;SDS011;11207;59.512;18.050;2023-06-04T08:00:13;0.90;;;0.90;;
22080;SDS011;11207;59.512;18.050;2023-06-04T08:02:39;0.80;;;0.80;;
22080;SDS011;11207;59.512;18.050;2023-06-04T08:05:05;1.00;;;1.00;;
22080;SDS011;11207;59.512;18.050;2023-06-04T08:07:31;0.73;;;0.73;;
22080;SDS011;11207;59.512;18.050;2023-06-04T08:09:56;0.90;;;0.90;;
22080;SDS011;11207;59.512;18.050;2023-06-04T08:12:22;0.80;;;0.80;;
22080;SDS011;11207;59.512;18.050;2023-06-04T08:14:48;0.60;;;0.60;;
22080;SDS011;11207;59.512;18.050;2023-06-04T08:17:15;0.80;;;0.80;;
22080;SDS011;11207;59.512;18.050;2023-06-04T08:19:41;0.90;;;0.90;;
22080;SDS011;11207;59.512;18.050;2023-06-04T08:22:06;0.80;;;0.80;;
22080;SDS011;11207;59.512;18.050;2023-06-04T08:24:34;1.00;;;1.00;;
22080;SDS011;11207;59.512;18.050;2023-06-04T08:26:59;0.90;;;0.90;;
22080;SDS011;11207;59.512;18.050;2023-06-04T08:29:25;0.73;;;0.73;;
22080;SDS011;11207;59.512;18.050;2023-06-04T08:31:51;0.80;;;0.80;;
22080;SDS011;11207;59.512;18.050;2023-06-04T08:34:17;0.80;;;0.80;;
22080;SDS011;11207;59.512;18.050;2023-06-04T08:36:42;1.52;;;0.85;;
22080;SDS011;11207;59.512;18.050;2023-06-04T08:39:08;1.27;;;0.93;;
22080;SDS011;11207;59.512;18.050;2023-06-04T08:41:38;1.00;;;0.90;;
22080;SDS011;11207;59.512;18.050;2023-06-04T08:44:11;0.80;;;0.80;;
22080;SDS011;11207;59.512;18.050;2023-06-04T08:46:39;0.98;;;0.90;;
22080;SDS011;11207;59.512;18.050;2023-06-04T08:49:05;0.70;;;0.70;;
22080;SDS011;11207;59.512;18.050;2023-06-04T08:51:32;0.83;;;0.83;;
22080;SDS011;11207;59.512;18.050;2023-06-04T08:54:03;1.08;;;1.05;;
22080;SDS011;11207;59.512;18.050;2023-06-04T08:56:29;1.12;;;1.10;;
22080;SDS011;11207;59.512;18.050;2023-06-04T08:59:00;0.97;;;0.97;;
22080;SDS011;11207;59.512;18.050;2023-06-04T09:01:28;0.90;;;0.90;;
22080;SDS011;11207;59.512;18.050;2023-06-04T09:03:54;0.90;;;0.90;;
22080;SDS011;11207;59.512;18.050;2023-06-04T09:06:22;1.23;;;0.90;;
22080;SDS011;11207;59.512;18.050;2023-06-04T09:08:51;1.70;;;0.90;;
22080;SDS011;11207;59.512;18.050;2023-06-04T09:11:22;1.20;;;1.10;;
22080;SDS011;11207;59.512;18.050;2023-06-04T09:13:48;2.37;;;1.00;;
22080;SDS011;11207;59.512;18.050;2023-06-04T09:16:16;1.00;;;1.00;;
22080;SDS011;11207;59.512;18.050;2023-06-04T09:18:41;1.00;;;1.00;;
22080;SDS011;11207;59.512;18.050;2023-06-04T09:21:08;1.33;;;1.00;;
22080;SDS011;11207;59.512;18.050;2023-06-04T09:23:43;1.20;;;0.80;;
22080;SDS011;11207;59.512;18.050;2023-06-04T09:26:12;0.97;;;0.97;;
22080;SDS011;11207;59.512;18.050;2023-06-04T09:28:42;0.90;;;0.90;;
22080;SDS011;11207;59.512;18.050;2023-06-04T09:31:09;1.00;;;1.00;;
22080;SDS011;11207;59.512;18.050;2023-06-04T09:33:48;0.90;;;0.90;;
22080;SDS011;11207;59.512;18.050;2023-06-04T09:36:15;1.23;;;1.20;;
22080;SDS011;11207;59.512;18.050;2023-06-04T09:38:41;1.17;;;1.17;;
22080;SDS011;11207;59.512;18.050;2023-06-04T09:41:11;1.10;;;1.10;;
22080;SDS011;11207;59.512;18.050;2023-06-04T09:43:39;0.90;;;0.90;;
22080;SDS011;11207;59.512;18.050;2023-06-04T09:46:09;0.93;;;0.93;;
22080;SDS011;11207;59.512;18.050;2023-06-04T09:48:36;1.10;;;1.10;;
22080;SDS011;11207;59.512;18.050;2023-06-04T09:51:11;0.90;;;0.90;;
22080;SDS011;11207;59.512;18.050;2023-06-04T09:53:40;1.10;;;1.00;;
22080;SDS011;11207;59.512;18.050;2023-06-04T09:56:06;0.93;;;0.93;;
22080;SDS011;11207;59.512;18.050;2023-06-04T09:58:33;0.90;;;0.90;;
22080;SDS011;11207;59.512;18.050;2023-06-04T10:01:00;0.90;;;0.90;;
22080;SDS011;11207;59.512;18.050;2023-06-04T10:03:32;4.00;;;1.10;;
22080;SDS011;11207;59.512;18.050;2023-06-04T10:06:01;0.93;;;0.93;;
22080;SDS011;11207;59.512;18.050;2023-06-04T10:08:31;1.08;;;1.08;;
22080;SDS011;11207;59.512;18.050;2023-06-04T10:11:01;1.10;;;1.10;;
22080;SDS011;11207;59.512;18.050;2023-06-04T10:13:35;1.17;;;1.00;;
22080;SDS011;11207;59.512;18.050;2023-06-04T10:16:15;1.00;;;1.00;;
22080;SDS011;11207;59.512;18.050;2023-06-04T10:18:41;1.00;;;1.00;;
22080;SDS011;11207;59.512;18.050;2023-06-04T10:21:09;1.02;;;1.00;;
22080;SDS011;11207;59.512;18.050;2023-06-04T10:23:38;1.00;;;1.00;;
22080;SDS011;11207;59.512;18.050;2023-06-04T10:26:03;0.90;;;0.90;;
22080;SDS011;11207;59.512;18.050;2023-06-04T10:28:29;0.98;;;0.98;;
22080;SDS011;11207;59.512;18.050;2023-06-04T10:30:56;0.82;;;0.82;;
22080;SDS011;11207;59.512;18.050;2023-06-04T10:33:22;0.85;;;0.85;;
22080;SDS011;11207;59.512;18.050;2023-06-04T10:35:50;1.00;;;1.00;;
22080;SDS011;11207;59.512;18.050;2023-06-04T10:38:18;0.90;;;0.90;;
22080;SDS011;11207;59.512;18.050;2023-06-04T10:40:46;0.90;;;0.90;;
22080;SDS011;11207;59.512;18.050;2023-06-04T10:43:12;0.70;;;0.70;;
22080;SDS011;11207;59.512;18.050;2023-06-04T10:45:41;0.90;;;0.90;;
22080;SDS011;11207;59.512;18.050;2023-06-04T10:48:11;0.93;;;0.93;;
22080;SDS011;11207;59.512;18.050;2023-06-04T10:50:48;2.17;;;0.80;;
22080;SDS011;11207;59.512;18.050;2023-06-04T10:53:14;0.80;;;0.80;;
22080;SDS011;11207;59.512;18.050;2023-06-04T10:55:45;0.73;;;0.70;;
22080;SDS011;11207;59.512;18.050;2023-06-04T10:58:12;1.43;;;0.80;;
22080;SDS011;11207;59.512;18.050;2023-06-04T11:03:07;0.80;;;0.80;;
22080;SDS011;11207;59.512;18.050;2023-06-04T11:08:02;1.27;;;0.93;;
22080;SDS011;11207;59.512;18.050;2023-06-04T11:10:33;0.90;;;0.90;;
22080;SDS011;11207;59.512;18.050;2023-06-04T11:13:03;0.80;;;0.80;;
22080;SDS011;11207;59.512;18.050;2023-06-04T11:15:40;0.70;;;0.70;;
22080;SDS011;11207;59.512;18.050;2023-06-04T11:18:13;1.10;;;1.10;;
22080;SDS011;11207;59.512;18.050;2023-06-04T11:20:40;2.03;;;1.00;;
22080;SDS011;11207;59.512;18.050;2023-06-04T11:23:11;1.05;;;0.80;;
22080;SDS011;11207;59.512;18.050;2023-06-04T11:25:37;1.10;;;1.02;;
22080;SDS011;11207;59.512;18.050;2023-06-04T11:28:03;0.80;;;0.80;;
22080;SDS011;11207;59.512;18.050;2023-06-04T11:30:29;0.80;;;0.80;;
22080;SDS011;11207;59.512;18.050;2023-06-04T11:33:02;0.80;;;0.80;;
22080;SDS011;11207;59.512;18.050;2023-06-04T11:35:28;0.90;;;0.90;;
22080;SDS011;11207;59.512;18.050;2023-06-04T11:37:54;1.45;;;0.90;;
22080;SDS011;11207;59.512;18.050;2023-06-04T11:40:21;0.75;;;0.75;;
22080;SDS011;11207;59.512;18.050;2023-06-04T11:42:47;0.80;;;0.80;;
22080;SDS011;11207;59.512;18.050;2023-06-04T11:45:14;1.00;;;1.00;;
22080;SDS011;11207;59.512;18.050;2023-06-04T11:47:46;1.30;;;1.20;;
22080;SDS011;11207;59.512;18.050;2023-06-04T11:50:13;1.02;;;0.90;;
22080;SDS011;11207;59.512;18.050;2023-06-04T11:52:39;1.02;;;1.02;;
22080;SDS011;11207;59.512;18.050;2023-06-04T11:55:09;0.98;;;0.90;;
22080;SDS011;11207;59.512;18.050;2023-06-04T11:57:36;0.90;;;0.90;;
22080;SDS011;11207;59.512;18.050;2023-06-04T12:00:05;0.90;;;0.90;;
22080;SDS011;11207;59.512;18.050;2023-06-04T12:02:36;1.40;;;0.88;;
22080;SDS011;11207;59.512;18.050;2023-06-04T12:05:14;1.08;;;1.08;;
22080;SDS011;11207;59.512;18.050;2023-06-04T12:07:44;0.80;;;0.80;;
22080;SDS011;11207;59.512;18.050;2023-06-04T12:10:12;0.82;;;0.82;;
22080;SDS011;11207;59.512;18.050;2023-06-04T12:12:38;1.00;;;0.85;;
22080;SDS011;11207;59.512;18.050;2023-06-04T12:15:05;0.80;;;0.80;;
22080;SDS011;11207;59.512;18.050;2023-06-04T12:17:34;0.80;;;0.80;;
22080;SDS011;11207;59.512;18.050;2023-06-04T12:20:01;0.80;;;0.80;;
22080;SDS011;11207;59.512;18.050;2023-06-04T12:22:27;2.47;;;0.98;;
22080;SDS011;11207;59.512;18.050;2023-06-04T12:24:54;0.98;;;0.90;;
22080;SDS011;11207;59.512;18.050;2023-06-04T12:27:21;0.60;;;0.60;;
22080;SDS011;11207;59.512;18.050;2023-06-04T12:32:24;0.80;;;0.80;;
22080;SDS011;11207;59.512;18.050;2023-06-04T12:34:50;0.70;;;0.70;;
22080;SDS011;11207;59.512;18.050;2023-06-04T12:37:16;0.80;;;0.80;;
22080;SDS011;11207;59.512;18.050;2023-06-04T12:39:42;0.77;;;0.77;;
22080;SDS011;11207;59.512;18.050;2023-06-04T12:42:08;0.85;;;0.85;;
22080;SDS011;11207;59.512;18.050;2023-06-04T12:44:37;0.73;;;0.70;;
22080;SDS011;11207;59.512;18.050;2023-06-04T12:47:04;4.78;;;1.00;;
22080;SDS011;11207;59.512;18.050;2023-06-04T12:49:30;1.05;;;0.70;;
22080;SDS011;11207;59.512;18.050;2023-06-04T12:51:56;0.82;;;0.68;;
22080;SDS011;11207;59.512;18.050;2023-06-04T12:54:22;0.60;;;0.60;;
22080;SDS011;11207;59.512;18.050;2023-06-04T12:56:48;0.73;;;0.73;;
22080;SDS011;11207;59.512;18.050;2023-06-04T12:59:13;0.60;;;0.60;;
22080;SDS011;11207;59.512;18.050;2023-06-04T13:01:39;0.80;;;0.80;;
22080;SDS011;11207;59.512;18.050;2023-06-04T13:04:05;0.60;;;0.60;;
22080;SDS011;11207;59.512;18.050;2023-06-04T13:06:33;0.80;;;0.80;;
22080;SDS011;11207;59.512;18.050;2023-06-04T13:09:00;0.85;;;0.80;;
22080;SDS011;11207;59.512;18.050;2023-06-04T13:11:26;1.05;;;1.00;;
22080;SDS011;11207;59.512;18.050;2023-06-04T13:13:52;0.85;;;0.85;;
22080;SDS011;11207;59.512;18.050;2023-06-04T13:16:18;0.65;;;0.65;;
22080;SDS011;11207;59.512;18.050;2023-06-04T13:18:43;0.73;;;0.73;;
22080;SDS011;11207;59.512;18.050;2023-06-04T13:21:09;0.68;;;0.68;;
22080;SDS011;11207;59.512;18.050;2023-06-04T13:23:35;0.95;;;0.90;;
22080;SDS011;11207;59.512;18.050;2023-06-04T13:26:00;0.70;;;0.70;;
22080;SDS011;11207;59.512;18.050;2023-06-04T13:28:26;0.70;;;0.70;;
22080;SDS011;11207;59.512;18.050;2023-06-04T13:30:52;3.40;;;1.33;;
22080;SDS011;11207;59.512;18.050;2023-06-04T13:33:18;0.80;;;0.80;;
22080;SDS011;11207;59.512;18.050;2023-06-04T13:35:45;5.03;;;2.10;;
22080;SDS011;11207;59.512;18.050;2023-06-04T13:38:11;1.10;;;1.00;;
22080;SDS011;11207;59.512;18.050;2023-06-04T13:40:37;0.70;;;0.70;;
22080;SDS011;11207;59.512;18.050;2023-06-04T13:43:06;0.80;;;0.80;;
22080;SDS011;11207;59.512;18.050;2023-06-04T13:45:33;0.75;;;0.75;;
22080;SDS011;11207;59.512;18.050;2023-06-04T13:47:59;0.80;;;0.80;;
22080;SDS011;11207;59.512;18.050;2023-06-04T13:50:29;0.75;;;0.75;;
22080;SDS011;11207;59.512;18.050;2023-06-04T13:52:55;1.37;;;0.95;;
22080;SDS011;11207;59.512;18.050;2023-06-04T13:55:21;0.90;;;0.90;;
22080;SDS011;11207;59.512;18.050;2023-06-04T13:57:47;0.70;;;0.70;;
22080;SDS011;11207;59.512;18.050;2023-06-04T14:00:15;0.70;;;0.70;;
22080;SDS011;11207;59.512;18.050;2023-06-04T14:02:41;0.93;;;0.85;;
22080;SDS011;11207;59.512;18.050;2023-06-04T14:05:07;0.95;;;0.88;;
22080;SDS011;11207;59.512;18.050;2023-06-04T14:07:35;0.70;;;0.70;;
22080;SDS011;11207;59.512;18.050;2023-06-04T14:10:01;0.90;;;0.90;;
22080;SDS011;11207;59.512;18.050;2023-06-04T14:12:27;0.82;;;0.82;;
22080;SDS011;11207;59.512;18.050;2023-06-04T14:14:55;0.80;;;0.80;;
22080;SDS011;11207;59.512;18.050;2023-06-04T14:17:21;0.80;;;0.80;;
22080;SDS011;11207;59.512;18.050;2023-06-04T14:19:47;0.90;;;0.90;;
22080;SDS011;11207;59.512;18.050;2023-06-04T14:22:12;0.90;;;0.90;;
22080;SDS011;11207;59.512;18.050;2023-06-04T14:24:40;0.85;;;0.85;;
22080;SDS011;11207;59.512;18.050;2023-06-04T14:27:06;1.12;;;1.02;;
22080;SDS011;11207;59.512;18.050;2023-06-04T14:29:32;1.85;;;0.70;;
22080;SDS011;11207;59.512;18.050;2023-06-04T14:31:57;0.70;;;0.70;;
22080;SDS011;11207;59.512;18.050;2023-06-04T14:34:23;1.23;;;1.02;;
22080;SDS011;11207;59.512;18.050;2023-06-04T14:36:49;0.80;;;0.80;;
22080;SDS011;11207;59.512;18.050;2023-06-04T14:39:16;1.73;;;0.90;;
22080;SDS011;11207;59.512;18.050;2023-06-04T14:41:41;0.85;;;0.85;;
22080;SDS011;11207;59.512;18.050;2023-06-04T14:44:07;1.08;;;0.98;;